Time;durP1;ratioP1;P1;durP2;ratioP2;P2;SDS_P1;SDS_P2;PMS_P1;PMS_P2;Temp;Humidity;BMP_temperature;BMP_pressure;BME280_temperature;BME280_humidity;BME280_pressure;Samples;Min_cycle;Max_cycle;Signal;HPM_P1;HPM_P2
2022/03/17 00:00:58;;;;;;;18.02;9.98;;;;;;;3.64;80.82;100842.94;4466355;32;34480;-78
2022/03/17 00:03:45;;;;;;;18.12;9.80;;;;;;;3.75;79.08;100840.22;4476946;32;35461;-78
2022/03/17 00:06:31;;;;;;;19.50;10.73;;;;;;;3.77;78.38;100848.94;4484733;32;34900;-79
2022/03/17 00:09:17;;;;;;;18.37;10.43;;;;;;;3.69;78.03;100848.47;4475592;32;34683;-78
2022/03/17 00:12:05;;;;;;;22.55;10.40;;;;;;;3.34;79.23;100846.56;4482942;32;35075;-78
2022/03/17 00:14:51;;;;;;;20.48;10.70;;;;;;;3.09;79.84;100854.88;4483911;32;35583;-78
2022/03/17 00:17:38;;;;;;;18.90;10.82;;;;;;;3.12;79.39;100863.38;4484468;32;35436;-78
2022/03/17 00:20:25;;;;;;;18.77;10.57;;;;;;;3.55;78.49;100861.44;4472671;32;34600;-78
2022/03/17 00:23:11;;;;;;;20.52;11.95;;;;;;;3.48;78.43;100866.97;4482672;32;34784;-79
2022/03/17 00:25:57;;;;;;;17.77;10.77;;;;;;;3.68;78.49;100869.34;4483071;32;35643;-78
2022/03/17 00:28:43;;;;;;;19.67;11.25;;;;;;;3.15;81.40;100873.72;4482906;32;36099;-78
2022/03/17 00:31:30;;;;;;;20.60;11.20;;;;;;;3.08;80.06;100867.59;4483638;32;34718;-78
2022/03/17 00:34:16;;;;;;;19.25;10.68;;;;;;;3.04;82.79;100866.41;4481894;32;33852;-79
2022/03/17 00:37:03;;;;;;;15.98;9.45;;;;;;;2.71;83.83;100869.59;4472403;32;34568;-78
2022/03/17 00:39:51;;;;;;;18.48;10.68;;;;;;;1.73;87.16;100874.00;4468118;32;35913;-79
2022/03/17 00:42:37;;;;;;;19.67;10.30;;;;;;;2.88;82.93;100867.06;4465247;32;34573;-78
2022/03/17 00:45:24;;;;;;;19.62;10.80;;;;;;;3.00;80.76;100865.22;4478194;32;34208;-78
2022/03/17 00:48:11;;;;;;;21.25;11.52;;;;;;;3.09;80.57;100863.00;4475909;32;34692;-78
2022/03/17 00:50:57;;;;;;;18.62;11.10;;;;;;;2.11;85.29;100866.78;4467659;32;34893;-78
2022/03/17 00:53:46;;;;;;;18.42;10.73;;;;;;;2.20;87.06;100868.97;4485104;32;35078;-78
2022/03/17 00:56:32;;;;;;;21.17;10.60;;;;;;;2.88;82.48;100864.37;4483709;32;34457;-78
2022/03/17 00:59:19;;;;;;;21.73;11.25;;;;;;;3.33;79.76;100867.44;4475627;32;34597;-78
2022/03/17 01:02:05;;;;;;;22.50;10.43;;;;;;;3.09;79.75;100874.66;4484330;32;35847;-77
2022/03/17 01:04:51;;;;;;;21.00;11.25;;;;;;;2.85;80.38;100872.94;4475733;32;34310;-78
2022/03/17 01:07:37;;;;;;;18.95;10.82;;;;;;;2.87;80.34;100881.66;4483847;32;34168;-78
2022/03/17 01:10:24;;;;;;;20.30;11.48;;;;;;;2.90;79.95;100882.03;4478233;32;34564;-78
2022/03/17 01:13:10;;;;;;;18.20;10.63;;;;;;;3.31;78.61;100888.50;4466176;32;36341;-78
2022/03/17 01:15:57;;;;;;;16.67;10.68;;;;;;;3.39;78.48;100890.06;4483598;32;35532;-78
2022/03/17 01:18:44;;;;;;;18.77;11.10;;;;;;;3.80;76.23;100891.03;4475910;32;34146;-78
2022/03/17 01:21:31;;;;;;;21.50;11.68;;;;;;;3.20;78.28;100893.88;4463706;32;34592;-78
2022/03/17 01:24:17;;;;;;;19.45;11.73;;;;;;;2.85;79.45;100890.00;4483311;32;35026;-78
2022/03/17 01:27:04;;;;;;;21.02;13.02;;;;;;;2.74;79.62;100892.66;4475632;32;35456;-78
2022/03/17 01:29:50;;;;;;;21.30;12.85;;;;;;;2.43;83.55;100886.38;4476640;32;35183;-78
2022/03/17 01:32:40;;;;;;;21.48;12.35;;;;;;;2.48;83.45;100886.53;4477666;32;34670;-78
2022/03/17 01:35:27;;;;;;;21.73;12.45;;;;;;;3.15;80.23;100884.56;4482599;32;34989;-78
2022/03/17 01:38:13;;;;;;;18.20;11.05;;;;;;;3.13;80.60;100881.28;4477462;32;33483;-78
2022/03/17 01:41:00;;;;;;;20.98;11.73;;;;;;;3.56;77.92;100876.66;4482765;32;35175;-78
2022/03/17 01:43:46;;;;;;;19.70;10.98;;;;;;;3.51;75.19;100882.75;4483258;32;34643;-78
2022/03/17 01:47:26;;;;;;;19.42;11.50;;;;;;;3.35;75.14;100878.00;4482849;32;34968;-77
2022/03/17 01:49:41;;;;;;;19.87;11.63;;;;;;;3.02;76.31;100879.38;4476905;32;35216;-78
2022/03/17 01:52:28;;;;;;;20.30;11.27;;;;;;;3.34;74.80;100879.09;4454475;32;34331;-78
2022/03/17 01:55:17;;;;;;;19.27;11.10;;;;;;;3.34;74.77;100882.62;4460440;32;34692;-78
2022/03/17 01:58:03;;;;;;;20.23;11.85;;;;;;;2.87;76.65;100878.94;4481909;32;35995;-78
2022/03/17 02:00:50;;;;;;;19.83;11.00;;;;;;;2.80;77.11;100886.34;4473494;32;35454;-78
2022/03/17 02:03:39;;;;;;;20.20;11.80;;;;;;;2.92;76.79;100887.19;4463601;32;34224;-78
2022/03/17 02:06:26;;;;;;;22.98;12.48;;;;;;;2.77;78.30;100881.37;4479192;32;34715;-78
2022/03/17 02:09:12;;;;;;;23.17;12.95;;;;;;;2.74;78.52;100888.06;4481291;32;34924;-78
2022/03/17 02:15:08;;;;;;;19.05;11.85;;;;;;;3.01;78.64;100893.94;4479043;32;34152;-78
2022/03/17 02:17:55;;;;;;;21.15;12.27;;;;;;;2.67;80.05;100900.84;4475154;32;34667;-78
2022/03/17 02:20:41;;;;;;;22.05;12.75;;;;;;;2.75;79.01;100910.56;4469015;32;33937;-78
2022/03/17 02:26:33;;;;;;;21.80;12.20;;;;;;;2.70;79.14;100906.66;4483617;32;34203;-78
2022/03/17 02:29:19;;;;;;;24.02;12.93;;;;;;;2.95;78.62;100907.56;4476299;32;35450;-78
2022/03/17 02:32:08;;;;;;;20.25;12.07;;;;;;;1.64;84.16;100910.47;4484941;32;36051;-79
2022/03/17 02:34:54;;;;;;;23.98;13.38;;;;;;;2.23;81.86;100919.06;4477753;32;34474;-79
2022/03/17 02:37:41;;;;;;;27.75;15.20;;;;;;;1.40;84.88;100919.41;4483530;32;34206;-78
2022/03/17 02:40:27;;;;;;;28.17;14.70;;;;;;;1.78;85.40;100917.41;4484111;32;34738;-78
2022/03/17 02:43:14;;;;;;;25.92;14.43;;;;;;;1.35;88.48;100926.28;4473603;32;35883;-79
2022/03/17 02:46:01;;;;;;;25.12;14.82;;;;;;;1.10;91.60;100928.94;4477483;32;34817;-79
2022/03/17 02:48:47;;;;;;;26.75;15.23;;;;;;;1.18;90.60;100937.84;4473652;32;35360;-79
2022/03/17 02:51:34;;;;;;;27.83;15.27;;;;;;;0.92;92.48;100938.81;4484373;32;35623;-78
2022/03/17 02:54:20;;;;;;;28.98;16.35;;;;;;;0.86;93.52;100933.22;4476098;32;34956;-78
2022/03/17 02:57:07;;;;;;;28.38;15.73;;;;;;;1.54;90.91;100945.28;4483846;32;35424;-78
2022/03/17 02:59:54;;;;;;;29.02;15.88;;;;;;;1.51;89.63;100949.25;4454540;32;34235;-78
2022/03/17 03:02:42;;;;;;;28.15;16.00;;;;;;;1.72;89.40;100948.03;4478607;32;34564;-78
2022/03/17 03:05:28;;;;;;;26.40;15.27;;;;;;;2.52;86.55;100944.53;4484403;32;36090;-78
2022/03/17 03:08:15;;;;;;;25.37;14.85;;;;;;;2.87;84.07;100942.03;4475813;32;34623;-78
2022/03/17 03:11:01;;;;;;;27.62;16.12;;;;;;;1.57;88.20;100959.16;4484326;32;34230;-78
2022/03/17 03:13:48;;;;;;;30.48;15.20;;;;;;;1.57;91.04;100967.28;4484172;32;34607;-78
2022/03/17 03:16:35;;;;;;;26.80;14.90;;;;;;;2.37;86.39;100963.84;4483845;32;35085;-78
2022/03/17 03:19:22;;;;;;;26.45;14.40;;;;;;;2.64;83.66;100961.66;4466074;32;35506;-77
2022/03/17 03:22:08;;;;;;;26.70;14.55;;;;;;;2.69;82.53;100961.81;4475902;32;34265;-78
2022/03/17 03:24:56;;;;;;;27.25;14.87;;;;;;;3.15;81.15;100954.97;4483175;32;35535;-78
2022/03/17 03:27:43;;;;;;;27.35;15.48;;;;;;;3.34;80.13;100950.34;4476064;32;36128;-78
2022/03/17 03:30:29;;;;;;;27.60;16.45;;;;;;;3.04;80.76;100947.62;4473854;32;34789;-78
2022/03/17 03:33:16;;;;;;;25.55;14.50;;;;;;;3.32;80.02;100944.31;4461906;32;33172;-78
2022/03/17 03:39:07;;;;;;;24.90;14.70;;;;;;;2.93;79.05;100949.25;4485402;32;34998;-78
2022/03/17 03:41:54;;;;;;;29.37;15.10;;;;;;;2.74;78.54;100952.22;4479496;32;34753;-78
2022/03/17 03:44:40;;;;;;;26.15;14.55;;;;;;;2.34;79.31;100966.19;4482044;32;33991;-78
2022/03/17 03:47:27;;;;;;;29.08;15.43;;;;;;;2.02;82.42;100961.72;4473140;32;35535;-78
2022/03/17 03:50:13;;;;;;;27.33;16.00;;;;;;;2.27;81.96;100968.13;4482422;32;36022;-78
2022/03/17 03:53:00;;;;;;;30.33;17.25;;;;;;;2.17;82.34;100966.75;4475179;32;35464;-78
2022/03/17 03:55:46;;;;;;;30.33;15.82;;;;;;;2.17;82.80;100971.34;4468816;32;34184;-79
2022/03/17 03:58:32;;;;;;;28.73;16.02;;;;;;;2.56;81.99;100970.13;4483333;32;34693;-78
2022/03/17 04:01:18;;;;;;;28.65;15.52;;;;;;;2.54;82.00;100971.38;4477053;32;36018;-78
2022/03/17 04:04:05;;;;;;;29.83;16.02;;;;;;;2.79;80.93;100960.44;4472504;32;35545;-79
2022/03/17 04:06:54;;;;;;;26.80;16.55;;;;;;;2.77;81.23;100947.16;4483076;32;34181;-78
2022/03/17 04:09:41;;;;;;;29.92;16.73;;;;;;;2.92;80.48;100946.75;4474991;32;34319;-79
2022/03/17 04:12:27;;;;;;;27.85;16.40;;;;;;;2.39;80.24;100950.94;4474122;32;35004;-79
2022/03/17 04:15:14;;;;;;;26.95;15.35;;;;;;;2.50;81.09;100941.22;4480766;32;34566;-78
2022/03/17 04:18:00;;;;;;;27.87;15.60;;;;;;;2.43;80.71;100949.44;4483432;32;34769;-79
2022/03/17 04:20:46;;;;;;;27.90;15.15;;;;;;;2.62;80.45;100934.03;4484651;32;34682;-79
2022/03/17 04:23:32;;;;;;;26.90;15.73;;;;;;;2.63;79.75;100927.56;4484738;32;35054;-78
2022/03/17 04:26:18;;;;;;;27.27;15.75;;;;;;;2.80;78.75;100937.75;4464956;32;34592;-78
2022/03/17 04:29:04;;;;;;;24.67;14.93;;;;;;;2.43;77.94;100951.31;4478058;32;34197;-77
2022/03/17 04:31:50;;;;;;;28.85;15.23;;;;;;;1.23;81.67;100956.91;4483941;32;34848;-78
2022/03/17 04:34:37;;;;;;;27.55;15.35;;;;;;;1.98;79.53;100970.47;4473388;32;34917;-77
2022/03/17 04:37:23;;;;;;;30.33;17.30;;;;;;;1.97;79.53;100974.25;4482487;32;35788;-75
2022/03/17 04:40:10;;;;;;;29.65;16.98;;;;;;;2.18;78.34;100987.34;4481281;32;35074;-75
2022/03/17 04:42:57;;;;;;;32.38;16.83;;;;;;;1.96;80.13;100994.19;4482468;32;34330;-75
2022/03/17 04:45:45;;;;;;;29.77;16.67;;;;;;;1.02;84.75;100993.13;4480930;32;35013;-75
2022/03/17 04:48:31;;;;;;;31.42;17.33;;;;;;;1.78;82.49;100992.25;4482464;32;35024;-76
2022/03/17 04:51:17;;;;;;;30.52;17.27;;;;;;;1.78;81.89;100994.97;4475152;32;34251;-75
2022/03/17 04:54:05;;;;;;;30.75;16.85;;;;;;;2.08;80.76;100981.63;4483547;32;35607;-76
2022/03/17 04:56:51;;;;;;;28.85;17.08;;;;;;;2.48;78.90;100987.47;4476368;32;35929;-76
2022/03/17 04:59:37;;;;;;;30.05;16.33;;;;;;;2.10;78.93;100987.62;4473065;32;34324;-75
2022/03/17 05:02:23;;;;;;;29.65;16.15;;;;;;;1.96;80.24;101005.00;4466148;32;35101;-75
2022/03/17 05:05:10;;;;;;;30.17;16.23;;;;;;;2.40;77.36;101001.28;4465407;32;33769;-75
2022/03/17 05:07:57;;;;;;;28.45;15.98;;;;;;;2.11;78.12;101008.22;4482623;32;34951;-75
2022/03/17 05:10:44;;;;;;;28.02;15.85;;;;;;;2.27;77.58;101003.28;4483260;32;34697;-75
2022/03/17 05:13:30;;;;;;;27.00;16.12;;;;;;;1.83;78.66;101005.12;4475394;32;34274;-75
2022/03/17 05:16:17;;;;;;;31.75;16.05;;;;;;;1.91;80.10;101018.38;4481679;32;35564;-75
2022/03/17 05:19:04;;;;;;;25.58;14.65;;;;;;;2.04;78.96;101023.66;4465469;32;33712;-75
2022/03/17 05:21:53;;;;;;;31.90;16.80;;;;;;;2.36;75.39;101042.50;4481264;32;33271;-75
2022/03/17 05:24:42;;;;;;;32.15;18.35;;;;;;;1.11;81.19;101045.84;4455544;32;34227;-75
2022/03/17 05:27:30;;;;;;;34.92;17.98;;;;;;;1.05;83.19;101052.09;4471088;32;35526;-75
2022/03/17 05:30:18;;;;;;;32.30;17.58;;;;;;;1.78;80.65;101047.13;4482076;32;35679;-75
2022/03/17 05:33:05;;;;;;;35.85;17.12;;;;;;;1.62;81.16;101044.13;4474904;32;34308;-75
2022/03/17 05:35:51;;;;;;;32.78;17.87;;;;;;;2.08;78.93;101057.34;4482736;32;34401;-76
2022/03/17 05:38:37;;;;;;;32.10;16.85;;;;;;;2.38;77.04;101062.88;4482018;32;34685;-76
2022/03/17 05:41:23;;;;;;;32.58;17.12;;;;;;;2.09;78.53;101064.37;4482156;32;35075;-75
2022/03/17 05:44:09;;;;;;;30.88;17.30;;;;;;;2.62;75.79;101074.75;4481355;32;35516;-76
2022/03/17 05:46:55;;;;;;;29.73;16.23;;;;;;;2.69;75.19;101080.91;4484344;32;34856;-75
2022/03/17 05:49:42;;;;;;;29.65;15.63;;;;;;;2.51;74.75;101091.72;4465695;32;34634;-75
2022/03/17 05:52:28;;;;;;;26.92;15.98;;;;;;;2.60;75.54;101093.06;4483754;32;36034;-75
2022/03/17 05:55:16;;;;;;;31.17;16.45;;;;;;;2.53;75.93;101097.69;4484563;32;35466;-75
2022/03/17 05:58:03;;;;;;;31.65;16.95;;;;;;;2.54;77.08;101099.38;4485267;32;34233;-75
2022/03/17 06:00:49;;;;;;;31.75;17.27;;;;;;;2.61;76.51;101094.72;4465366;32;35547;-75
2022/03/17 06:03:36;;;;;;;31.27;16.85;;;;;;;2.23;78.23;101103.78;4484168;32;34932;-75
2022/03/17 06:06:23;;;;;;;33.63;17.50;;;;;;;2.88;75.78;101098.00;4475121;32;35426;-75
2022/03/17 06:09:09;;;;;;;40.80;19.55;;;;;;;2.80;75.52;101109.13;4474618;32;34214;-75
2022/03/17 06:11:57;;;;;;;40.25;20.50;;;;;;;2.50;77.05;101108.97;4483239;32;34525;-75
2022/03/17 06:14:43;;;;;;;41.88;22.08;;;;;;;2.91;76.18;101110.28;4484200;32;34978;-75
2022/03/17 06:17:44;;;;;;;44.05;23.52;;;;;;;3.13;75.84;101111.47;4463556;32;34560;-76
2022/03/17 06:20:32;;;;;;;;;;;;;;;3.36;75.17;101118.09;4477939;32;34283;-75
2022/03/17 06:23:18;;;;;;;38.60;19.60;;;;;;;3.64;74.48;101114.81;4478501;32;34810;-75
2022/03/17 06:26:04;;;;;;;38.38;20.25;;;;;;;3.88;74.07;101126.59;4484291;32;36082;-75
2022/03/17 06:28:50;;;;;;;43.08;22.75;;;;;;;3.96;73.90;101128.97;4474557;32;34841;-75
2022/03/17 06:31:38;;;;;;;41.97;21.62;;;;;;;4.31;72.84;101132.84;4484440;32;34421;-75
2022/03/17 06:34:23;;;;;;;47.30;22.02;;;;;;;4.58;71.59;101146.78;4476236;32;34510;-75
2022/03/17 06:37:10;;;;;;;39.53;22.00;;;;;;;4.70;70.57;101139.50;4484730;32;34975;-75
2022/03/17 06:39:56;;;;;;;38.22;21.45;;;;;;;4.62;71.26;101137.97;4476716;32;34649;-75
2022/03/17 06:42:43;;;;;;;38.90;18.83;;;;;;;4.96;68.60;101136.31;4484799;32;35162;-75
2022/03/17 06:45:30;;;;;;;33.53;17.35;;;;;;;4.95;67.90;101131.97;4480099;32;32570;-76
2022/03/17 06:48:17;;;;;;;31.20;17.17;;;;;;;4.96;67.13;101133.59;4474397;32;34949;-75
2022/03/17 06:51:03;;;;;;;34.60;16.73;;;;;;;5.46;64.07;101126.78;4483956;32;34665;-75
2022/03/17 06:53:50;;;;;;;30.52;16.27;;;;;;;5.54;63.62;101136.44;4482868;32;35102;-75
2022/03/17 06:56:36;;;;;;;31.33;16.17;;;;;;;5.44;61.80;101139.81;4483031;32;35507;-76
2022/03/17 06:59:22;;;;;;;32.25;17.65;;;;;;;6.00;58.61;101143.62;4482470;32;35052;-76
2022/03/17 07:02:08;;;;;;;31.58;18.08;;;;;;;5.92;56.88;101143.16;4476667;32;35583;-75
2022/03/17 07:04:55;;;;;;;30.40;16.80;;;;;;;6.25;55.05;101146.00;4477073;32;34208;-75
2022/03/17 07:07:42;;;;;;;31.35;16.70;;;;;;;6.21;54.97;101141.31;4474532;32;35475;-75
2022/03/17 07:10:29;;;;;;;31.62;16.37;;;;;;;6.67;53.55;101148.34;4482856;32;35931;-76
2022/03/17 07:13:15;;;;;;;31.65;17.20;;;;;;;6.88;52.54;101154.09;4483687;32;34595;-76
2022/03/17 07:16:02;;;;;;;33.85;18.05;;;;;;;6.79;54.13;101144.69;4483039;32;34293;-75
2022/03/17 07:18:49;;;;;;;35.30;16.95;;;;;;;6.41;53.25;101143.56;4479190;32;34696;-75
2022/03/17 07:21:37;;;;;;;29.92;17.90;;;;;;;7.08;52.83;101148.94;4478530;32;34902;-75
2022/03/17 07:24:22;;;;;;;29.87;17.80;;;;;;;6.58;53.96;101138.94;4484278;32;34839;-75
2022/03/17 07:27:09;;;;;;;28.42;15.50;;;;;;;6.74;53.71;101149.00;4483777;32;34411;-76
2022/03/17 07:29:55;;;;;;;30.90;16.58;;;;;;;7.13;53.72;101151.75;4478709;32;35240;-76
2022/03/17 07:32:42;;;;;;;30.88;16.70;;;;;;;6.86;54.46;101148.06;4482748;32;35013;-75
2022/03/17 07:35:29;;;;;;;30.40;16.73;;;;;;;7.03;53.14;101148.03;4475732;32;34696;-75
2022/03/17 07:38:16;;;;;;;30.15;17.35;;;;;;;7.13;53.43;101146.28;4476182;32;34199;-75
2022/03/17 07:41:03;;;;;;;31.27;17.08;;;;;;;7.10;53.43;101152.25;4482424;32;34583;-75
2022/03/17 07:43:50;;;;;;;30.90;17.27;;;;;;;7.13;53.89;101146.28;4480546;32;34972;-76
2022/03/17 07:46:41;;;;;;;28.80;16.42;;;;;;;7.41;53.01;101156.22;4475424;32;34524;-76
2022/03/17 07:49:29;;;;;;;26.00;16.05;;;;;;;7.70;52.05;101153.31;4475440;32;34221;-76
2022/03/17 07:52:15;;;;;;;33.75;17.10;;;;;;;7.64;51.45;101146.97;4481292;32;34540;-75
2022/03/17 07:55:01;;;;;;;30.95;17.23;;;;;;;7.86;51.89;101146.13;4485188;32;35079;-75
2022/03/17 07:57:48;;;;;;;34.75;18.35;;;;;;;7.63;51.96;101153.50;4484194;32;34605;-77
2022/03/17 08:00:34;;;;;;;31.05;17.25;;;;;;;7.39;52.92;101149.37;4473736;32;33827;-76
2022/03/17 08:03:22;;;;;;;34.25;18.95;;;;;;;8.03;52.20;101156.97;4476685;32;34660;-79
2022/03/17 08:06:09;;;;;;;34.08;17.83;;;;;;;7.71;51.25;101160.41;4481812;32;35061;-81
2022/03/17 08:08:56;;;;;;;33.63;18.45;;;;;;;8.26;51.79;101158.56;4477215;32;34563;-79
2022/03/17 08:11:42;;;;;;;33.50;17.73;;;;;;;8.37;50.60;101149.37;4481616;32;34415;-79
2022/03/17 08:14:29;;;;;;;37.42;19.55;;;;;;;8.69;49.74;101149.37;4481283;32;34631;-80
2022/03/17 08:17:15;;;;;;;30.45;18.73;;;;;;;7.82;52.04;101164.06;4471854;32;34983;-80
2022/03/17 08:20:05;;;;;;;30.90;18.40;;;;;;;8.05;50.86;101158.34;4479605;32;34557;-80
2022/03/17 08:22:51;;;;;;;31.62;18.48;;;;;;;8.28;50.72;101156.38;4457039;32;35278;-79
2022/03/17 08:25:37;;;;;;;30.40;17.77;;;;;;;8.78;50.54;101166.13;4479940;31;34670;-81
2022/03/17 08:28:25;;;;;;;32.03;17.40;;;;;;;8.15;51.42;101174.00;4481588;32;34933;-80
2022/03/17 08:31:12;;;;;;;36.15;17.98;;;;;;;8.77;49.90;101172.69;4473412;32;34657;-81
2022/03/17 08:33:59;;;;;;;35.33;17.73;;;;;;;9.12;49.77;101172.09;4480183;32;34207;-79
2022/03/17 08:36:46;;;;;;;32.13;16.80;;;;;;;8.77;50.03;101180.88;4478866;32;35601;-77
2022/03/17 08:39:33;;;;;;;34.85;18.70;;;;;;;9.18;49.30;101175.69;4479707;32;35953;-79
2022/03/17 08:42:19;;;;;;;32.60;19.00;;;;;;;9.01;49.54;101184.06;4480691;32;34715;-77
2022/03/17 08:51:16;;;;;;;32.88;17.95;;;;;;;9.75;48.05;101179.53;4485280;32;34525;-77
2022/03/17 08:54:03;;;;;;;31.27;18.23;;;;;;;9.68;47.82;101177.88;4468837;32;34735;-78
2022/03/17 08:56:59;;;;;;;28.55;17.42;;;;;;;9.94;46.86;101177.97;4463460;32;34186;-80
2022/03/17 08:59:46;;;;;;;33.05;18.52;;;;;;;9.86;47.43;101187.53;4483809;32;34858;-79
2022/03/17 09:02:33;;;;;;;31.60;18.92;;;;;;;10.11;47.03;101189.53;4483619;32;34954;-80
2022/03/17 09:05:20;;;;;;;31.27;19.17;;;;;;;10.34;47.05;101193.72;4479718;32;34573;-79
2022/03/17 09:08:07;;;;;;;28.35;17.30;;;;;;;9.66;48.08;101184.72;4478476;32;34364;-79
2022/03/17 09:10:55;;;;;;;30.73;18.15;;;;;;;10.48;45.94;101190.44;4485907;32;35615;-79
2022/03/17 09:13:42;;;;;;;32.85;19.10;;;;;;;11.07;45.33;101195.38;4474263;32;34828;-80
2022/03/17 09:16:29;;;;;;;29.98;18.65;;;;;;;11.06;43.90;101193.72;4472798;32;34767;-79
2022/03/17 09:19:15;;;;;;;35.90;19.00;;;;;;;10.83;44.68;101197.03;4479290;32;34401;-77
2022/03/17 09:22:01;;;;;;;29.35;18.20;;;;;;;10.34;45.85;101201.94;4471893;32;35656;-78
2022/03/17 09:24:48;;;;;;;30.75;17.85;;;;;;;11.32;43.88;101199.16;4477055;32;36074;-79
2022/03/17 09:27:35;;;;;;;29.23;18.77;;;;;;;11.23;44.07;101191.50;4473704;32;34181;-79
2022/03/17 09:30:22;;;;;;;27.95;17.70;;;;;;;10.92;44.11;101187.97;4484294;32;34112;-79
2022/03/17 09:33:09;;;;;;;31.80;18.87;;;;;;;11.05;44.16;101200.31;4473732;32;35523;-79
2022/03/17 09:35:56;;;;;;;29.55;18.20;;;;;;;10.97;43.44;101196.19;4485572;32;35065;-78
2022/03/17 09:38:43;;;;;;;33.63;19.15;;;;;;;11.66;42.88;101207.56;4476520;32;34579;-78
2022/03/17 09:41:35;;;;;;;28.08;17.27;;;;;;;11.52;42.11;101199.09;4485787;32;33828;-79
2022/03/17 09:44:21;;;;;;;33.10;19.83;;;;;;;11.17;43.63;101198.09;4464921;32;34724;-80
2022/03/17 09:47:09;;;;;;;30.45;17.73;;;;;;;11.10;42.67;101189.34;4481651;32;36353;-80
2022/03/17 09:49:56;;;;;;;32.58;20.37;;;;;;;11.24;41.92;101206.87;4465091;32;34938;-80
2022/03/17 09:52:44;;;;;;;33.40;20.30;;;;;;;11.11;41.86;101206.63;4477027;32;33114;-80
2022/03/17 09:55:30;;;;;;;31.30;19.08;;;;;;;11.49;42.23;101208.72;4464344;32;34698;-79
2022/03/17 09:58:17;;;;;;;32.30;19.52;;;;;;;11.71;41.77;101204.81;4463792;32;34912;-79
2022/03/17 10:01:05;;;;;;;33.35;19.90;;;;;;;11.76;41.74;101201.25;4482820;32;34616;-79
2022/03/17 10:03:59;;;;;;;31.87;18.73;;;;;;;11.99;40.96;101208.84;4466950;32;35123;-79
2022/03/17 10:06:47;;;;;;;34.15;21.27;;;;;;;11.66;40.94;101194.66;4465483;32;34638;-80
2022/03/17 10:09:33;;;;;;;34.15;20.12;;;;;;;11.17;42.38;101192.59;4474936;32;35014;-80
2022/03/17 10:12:20;;;;;;;32.67;20.05;;;;;;;11.69;42.91;101202.34;4479214;32;34954;-80
2022/03/17 10:15:16;;;;;;;32.67;20.67;;;;;;;12.58;40.05;101190.63;4472553;32;34321;-82
2022/03/17 10:18:36;;;;;;;32.67;20.10;;;;;;;13.01;38.67;101177.88;4470635;32;34688;-82
2022/03/17 10:21:26;;;;;;;30.98;20.12;;;;;;;13.16;38.37;101182.41;4480117;31;34992;-81
2022/03/17 10:24:12;;;;;;;36.22;20.90;;;;;;;13.38;38.54;101184.69;4464360;32;35494;-82
2022/03/17 10:26:59;;;;;;;34.25;21.15;;;;;;;13.53;37.81;101180.94;4478729;32;34255;-84
2022/03/17 10:30:00;;;;;;;33.75;19.62;;;;;;;13.60;37.79;101186.09;4480924;32;34710;-83
2022/03/17 10:32:54;;;;;;;31.20;17.90;;;;;;;13.21;38.27;101176.03;4470207;32;34931;-83
2022/03/17 10:35:46;;;;;;;32.67;19.00;;;;;;;13.08;37.62;101176.72;4464138;32;33408;-84
2022/03/17 10:38:42;;;;;;;36.38;19.20;;;;;;;13.00;38.08;101178.97;4474830;32;35196;-82
2022/03/17 10:41:39;;;;;;;35.08;19.30;;;;;;;12.85;39.10;101181.06;4475169;32;34737;-82
2022/03/17 10:44:25;;;;;;;36.80;19.33;;;;;;;13.01;38.69;101183.38;4463824;32;35187;-84
2022/03/17 10:47:12;;;;;;;30.67;17.75;;;;;;;12.44;40.35;101189.63;4485628;32;34544;-82
2022/03/17 10:50:16;;;;;;;31.67;19.20;;;;;;;12.63;39.14;101195.25;4479344;32;34684;-82
2022/03/17 10:53:02;;;;;;;34.33;20.23;;;;;;;12.96;38.70;101191.69;4463734;32;34632;-82
2022/03/17 10:55:49;;;;;;;30.15;18.65;;;;;;;12.92;39.06;101190.63;4465741;32;34935;-82
2022/03/17 10:58:43;;;;;;;31.55;18.92;;;;;;;13.47;37.57;101199.47;4472626;32;35540;-83
2022/03/17 11:01:50;;;;;;;29.55;17.83;;;;;;;13.65;36.71;101200.63;4478987;32;35157;-81
2022/03/17 11:04:38;;;;;;;36.88;20.55;;;;;;;13.74;37.49;101209.06;4477428;32;35148;-81
2022/03/17 11:07:25;;;;;;;27.95;17.20;;;;;;;13.12;38.25;101208.03;4462565;32;35867;-82
2022/03/17 11:10:12;;;;;;;31.05;18.27;;;;;;;13.26;38.22;101211.78;4475589;32;34752;-83
2022/03/17 11:12:59;;;;;;;32.60;19.25;;;;;;;13.19;38.18;101208.53;4473577;32;34058;-81
2022/03/17 11:15:48;;;;;;;29.65;18.37;;;;;;;13.16;38.33;101212.69;4472159;32;35466;-81
2022/03/17 11:18:39;;;;;;;31.87;18.30;;;;;;;13.56;37.59;101212.59;4462913;32;35959;-81
2022/03/17 11:21:30;;;;;;;28.55;17.20;;;;;;;13.22;38.48;101216.22;4461655;32;34621;-80
2022/03/17 11:24:22;;;;;;;29.85;18.25;;;;;;;13.26;38.28;101211.78;4475569;32;34201;-81
2022/03/17 11:27:10;;;;;;;28.35;16.95;;;;;;;13.33;37.96;101215.03;4467918;32;34406;-80
2022/03/17 11:30:00;;;;;;;27.17;16.15;;;;;;;13.19;38.13;101214.84;4481742;32;34976;-82
2022/03/17 11:32:54;;;;;;;30.08;17.77;;;;;;;13.24;38.64;101209.31;4483471;32;34760;-82
2022/03/17 11:35:40;;;;;;;30.80;18.83;;;;;;;13.05;39.29;101214.69;4457746;32;35129;-82
2022/03/17 11:38:29;;;;;;;28.05;17.00;;;;;;;12.78;39.30;101211.66;4483759;32;35589;-81
2022/03/17 11:41:17;;;;;;;28.92;16.77;;;;;;;13.06;38.58;101212.75;4478545;32;35923;-81
2022/03/17 11:44:04;;;;;;;29.65;16.33;;;;;;;12.77;40.36;101201.75;4463145;32;34458;-83
2022/03/17 11:46:51;;;;;;;28.40;16.48;;;;;;;12.48;40.38;101213.50;4466515;32;35157;-82
2022/03/17 11:49:46;;;;;;;29.20;16.95;;;;;;;13.05;39.61;101216.63;4475464;32;34445;-81
2022/03/17 11:52:32;;;;;;;27.73;16.08;;;;;;;12.58;40.50;101213.44;4476109;32;35045;-82
2022/03/17 11:55:34;;;;;;;26.12;16.33;;;;;;;13.08;40.34;101207.00;4478620;32;34640;-83
2022/03/17 11:58:25;;;;;;;29.63;18.33;;;;;;;13.37;39.76;101209.75;4465098;32;34158;-83
2022/03/17 12:01:13;;;;;;;30.20;18.58;;;;;;;12.84;39.86;101218.75;4478679;32;34253;-83
2022/03/17 12:04:01;;;;;;;34.40;17.62;;;;;;;12.84;40.15;101221.50;4468739;32;34912;-82
2022/03/17 12:07:14;;;;;;;31.65;18.92;;;;;;;13.14;39.92;101206.63;4483503;32;34893;-82
2022/03/17 12:10:01;;;;;;;27.37;17.27;;;;;;;13.04;40.35;101209.50;4477304;32;34388;-81
2022/03/17 12:12:48;;;;;;;34.65;19.08;;;;;;;13.36;38.82;101206.19;4482697;32;34773;-82
2022/03/17 12:15:37;;;;;;;29.40;17.40;;;;;;;13.37;39.55;101202.31;4465445;32;35967;-81
2022/03/17 12:18:24;;;;;;;32.08;19.10;;;;;;;13.43;39.24;101206.66;4467107;32;35390;-81
2022/03/17 12:21:11;;;;;;;33.05;18.65;;;;;;;13.09;38.99;101206.72;4477970;32;34213;-82
2022/03/17 12:23:57;;;;;;;30.83;19.23;;;;;;;13.26;39.54;101207.13;4474261;32;34701;-83
2022/03/17 12:26:43;;;;;;;30.23;18.20;;;;;;;13.01;40.12;101194.38;4483926;32;35115;-82
2022/03/17 12:29:31;;;;;;;31.62;18.35;;;;;;;13.48;38.95;101192.00;4482104;32;34554;-83
2022/03/17 12:32:19;;;;;;;32.78;18.83;;;;;;;12.76;39.97;101203.69;4482565;32;34275;-85
2022/03/17 12:35:09;;;;;;;30.40;18.33;;;;;;;13.31;38.62;101203.47;4470128;32;34710;-84
2022/03/17 12:38:00;;;;;;;31.60;17.75;;;;;;;13.02;38.72;101200.72;4466974;32;34597;-83
2022/03/17 12:40:47;;;;;;;31.52;18.45;;;;;;;13.01;38.05;101199.91;4469109;32;34161;-83
2022/03/17 12:43:34;;;;;;;31.17;17.87;;;;;;;13.30;38.11;101190.84;4468784;32;34129;-83
2022/03/17 12:46:22;;;;;;;29.63;17.85;;;;;;;13.16;38.40;101189.84;4478358;32;34236;-80
2022/03/17 12:49:08;;;;;;;28.75;17.75;;;;;;;13.45;37.84;101198.91;4463121;32;35094;-81
2022/03/17 12:52:17;;;;;;;34.97;18.48;;;;;;;13.55;38.14;101194.41;4478843;32;35231;-82
2022/03/17 12:55:06;;;;;;;32.30;17.55;;;;;;;13.48;38.21;101203.84;4459416;32;33736;-81
2022/03/17 12:57:55;;;;;;;28.70;18.40;;;;;;;13.40;38.62;101196.22;4476753;32;35588;-81
2022/03/17 13:00:42;;;;;;;32.33;18.83;;;;;;;13.51;38.58;101199.69;4475174;32;34917;-81
2022/03/17 13:03:29;;;;;;;28.08;17.45;;;;;;;13.81;37.21;101200.44;4465875;32;34668;-81